createdAt,value
2023-03-05T00:01:36.175Z,94994.18
2023-03-05T00:04:06.479Z,94992.59
2023-03-05T00:06:34.976Z,94990.83
2023-03-05T00:09:03.553Z,94989.60
2023-03-05T00:11:33.788Z,94987.30
2023-03-05T00:14:04.365Z,94989.17
2023-03-05T00:16:33.696Z,94995.02
2023-03-05T00:19:02.355Z,94995.70
2023-03-05T00:21:34.457Z,94992.23
2023-03-05T00:24:05.016Z,94991.87
2023-03-05T00:26:36.994Z,94990.83
2023-03-05T00:29:07.083Z,94989.46
2023-03-05T00:31:36.622Z,94985.48
2023-03-05T00:34:08.238Z,94984.79
2023-03-05T00:36:40.621Z,94985.28
2023-03-05T00:39:08.778Z,94988.05
2023-03-05T00:41:36.962Z,94986.45
2023-03-05T00:44:05.530Z,94983.96
2023-03-05T00:46:33.873Z,94981.34
2023-03-05T00:49:02.610Z,94981.13
2023-03-05T00:51:30.716Z,94976.38
2023-03-05T00:53:58.836Z,94979.42
2023-03-05T00:56:26.980Z,94982.11
2023-03-05T00:58:56.852Z,94985.14
2023-03-05T01:01:25.929Z,94985.42
2023-03-05T01:03:56.542Z,94986.39
2023-03-05T01:06:25.510Z,94982.70
2023-03-05T01:08:53.700Z,94984.23
2023-03-05T01:11:22.839Z,94987.59
2023-03-05T01:13:50.964Z,94990.77
2023-03-05T01:16:19.139Z,94990.10
2023-03-05T01:18:47.174Z,94991.17
2023-03-05T01:21:15.580Z,94989.19
2023-03-05T01:23:43.653Z,94992.36
2023-03-05T01:26:12.045Z,94996.92
2023-03-05T01:28:40.821Z,94996.68
2023-03-05T01:31:12.247Z,94994.54
2023-03-05T01:33:40.642Z,94992.75
2023-03-05T01:36:13.561Z,94992.43
2023-03-05T01:38:43.440Z,94995.98
2023-03-05T01:41:12.674Z,94997.39
2023-03-05T01:43:41.473Z,94996.33
2023-03-05T01:46:22.807Z,94993.15
2023-03-05T01:49:09.016Z,94992.44
2023-03-05T01:51:49.568Z,94996.01
2023-03-05T01:54:21.343Z,94994.97
2023-03-05T01:56:52.115Z,94992.04
2023-03-05T01:59:23.655Z,94995.14
2023-03-05T02:01:56.023Z,94994.73
2023-03-05T02:04:31.201Z,95001.49
2023-03-05T02:06:59.805Z,95003.04
2023-03-05T02:09:28.937Z,95001.37
2023-03-05T02:11:58.179Z,95005.91
2023-03-05T02:14:27.325Z,95007.20
2023-03-05T02:16:55.611Z,95006.45
2023-03-05T02:19:24.101Z,95006.25
2023-03-05T02:21:52.978Z,95004.77
2023-03-05T02:24:37.701Z,95006.04
2023-03-05T02:27:06.475Z,95009.73
2023-03-05T02:29:37.676Z,95009.98
2023-03-05T02:32:05.933Z,95016.10
2023-03-05T02:34:34.390Z,95013.86
2023-03-05T02:37:04.832Z,95020.20
2023-03-05T02:39:34.119Z,95022.19
2023-03-05T02:42:02.295Z,95022.92
2023-03-05T02:44:30.716Z,95021.94
2023-03-05T02:46:59.256Z,95016.94
2023-03-05T02:49:28.662Z,95018.45
2023-03-05T02:51:56.697Z,95018.02
2023-03-05T02:54:25.291Z,95019.36
2023-03-05T02:56:53.794Z,95015.52
2023-03-05T02:59:23.500Z,95014.92
2023-03-05T03:01:51.786Z,95017.41
2023-03-05T03:04:19.810Z,95023.16
2023-03-05T03:06:48.128Z,95021.87
2023-03-05T03:09:16.193Z,95026.41
2023-03-05T03:11:44.382Z,95026.06
2023-03-05T03:14:12.551Z,95036.17
2023-03-05T03:16:40.691Z,95039.33
2023-03-05T03:19:08.796Z,95039.60
2023-03-05T03:21:36.822Z,95042.17
2023-03-05T03:24:05.284Z,95040.13
2023-03-05T03:26:33.367Z,95037.23
2023-03-05T03:29:01.483Z,95034.55
2023-03-05T03:31:29.663Z,95031.54
2023-03-05T03:33:57.653Z,95032.44
2023-03-05T03:36:25.949Z,95028.14
2023-03-05T03:38:53.999Z,95029.58
2023-03-05T03:41:22.057Z,95029.87
2023-03-05T03:43:50.220Z,95028.80
2023-03-05T03:46:18.384Z,95029.27
2023-03-05T03:48:50.766Z,95033.42
2023-03-05T03:51:18.938Z,95031.70
2023-03-05T03:53:46.925Z,95027.67
2023-03-05T03:56:14.915Z,95026.60
2023-03-05T03:58:43.049Z,95022.39
2023-03-05T04:01:11.247Z,95022.26
2023-03-05T04:03:39.282Z,95023.00
2023-03-05T04:06:07.446Z,95019.09
2023-03-05T04:08:36.392Z,95022.20
2023-03-05T04:11:05.255Z,95023.84
2023-03-05T04:13:33.526Z,95024.58
2023-03-05T04:16:01.956Z,95023.55
2023-03-05T04:18:32.417Z,95024.48
2023-03-05T04:21:00.606Z,95025.06
2023-03-05T04:23:29.187Z,95025.75
2023-03-05T04:25:57.360Z,95025.33
2023-03-05T04:28:25.625Z,95029.53
2023-03-05T04:30:53.683Z,95024.06
2023-03-05T04:33:21.978Z,95024.33
2023-03-05T04:35:50.993Z,95026.96
2023-03-05T04:38:19.311Z,95027.57
2023-03-05T04:40:47.827Z,95027.68
2023-03-05T04:43:15.901Z,95031.95
2023-03-05T04:45:44.628Z,95028.40
2023-03-05T04:48:13.281Z,95028.33
2023-03-05T04:50:41.547Z,95029.61
2023-03-05T04:53:09.579Z,95032.13
2023-03-05T04:55:37.598Z,95027.58
2023-03-05T04:58:05.854Z,95031.33
2023-03-05T05:00:34.029Z,95029.10
2023-03-05T05:03:02.266Z,95024.97
2023-03-05T05:05:30.356Z,95033.34
2023-03-05T05:07:59.078Z,95037.52
2023-03-05T05:10:27.675Z,95041.62
2023-03-05T05:12:55.882Z,95044.89
2023-03-05T05:15:24.429Z,95051.86
2023-03-05T05:17:52.720Z,95050.97
2023-03-05T05:20:21.061Z,95052.73
2023-03-05T05:22:49.233Z,95056.85
2023-03-05T05:25:17.539Z,95055.78
2023-03-05T05:27:45.617Z,95057.38
2023-03-05T05:30:13.885Z,95058.64
2023-03-05T05:32:42.078Z,95059.25
2023-03-05T05:35:10.923Z,95061.42
2023-03-05T05:37:39.107Z,95061.33
2023-03-05T05:40:08.634Z,95063.62
2023-03-05T05:42:37.184Z,95066.78
2023-03-05T05:45:06.338Z,95066.69
2023-03-05T05:47:34.677Z,95069.74
2023-03-05T05:50:03.761Z,95075.28
2023-03-05T05:52:32.237Z,95073.87
2023-03-05T05:55:00.569Z,95077.88
2023-03-05T05:57:28.686Z,95076.62
2023-03-05T05:59:56.962Z,95078.91
2023-03-05T06:02:25.289Z,95080.42
2023-03-05T06:04:53.920Z,95077.52
2023-03-05T06:07:22.097Z,95073.02
2023-03-05T06:09:50.308Z,95071.80
2023-03-05T06:12:18.359Z,95070.48
2023-03-05T06:14:46.429Z,95072.11
2023-03-05T06:17:21.822Z,95074.34
2023-03-05T06:19:55.462Z,95083.46
2023-03-05T06:22:23.643Z,95087.86
2023-03-05T06:24:51.700Z,95085.06
2023-03-05T06:27:19.961Z,95086.27
2023-03-05T06:29:48.043Z,95085.93
2023-03-05T06:32:16.102Z,95086.42
2023-03-05T06:34:44.392Z,95089.02
2023-03-05T06:37:12.460Z,95091.47
2023-03-05T06:39:40.448Z,95091.79
2023-03-05T06:42:08.494Z,95089.02
2023-03-05T06:44:42.509Z,95092.07
2023-03-05T06:47:10.803Z,95092.55
2023-03-05T06:49:39.594Z,95091.27
2023-03-05T06:52:10.277Z,95092.66
2023-03-05T06:54:38.621Z,95092.34
2023-03-05T06:57:06.756Z,95088.91
2023-03-05T06:59:34.830Z,95091.40
2023-03-05T07:02:03.049Z,95092.05
2023-03-05T07:04:31.177Z,95092.66
2023-03-05T07:07:00.591Z,95092.56
2023-03-05T07:09:28.602Z,95091.42
2023-03-05T07:11:57.105Z,95094.43
2023-03-05T07:14:25.149Z,95093.66
2023-03-05T07:16:53.206Z,95085.41
2023-03-05T07:19:21.258Z,95089.65
2023-03-05T07:21:49.225Z,95087.65
2023-03-05T07:24:17.483Z,95082.67
2023-03-05T07:26:47.442Z,95088.63
2023-03-05T07:29:16.618Z,95085.06
2023-03-05T07:31:44.873Z,95083.90
2023-03-05T07:34:13.541Z,95081.06
2023-03-05T07:36:42.488Z,95081.45
2023-03-05T07:39:12.363Z,95085.31
2023-03-05T07:41:40.533Z,95088.69
2023-03-05T07:44:09.899Z,95090.33
2023-03-05T07:46:38.494Z,95086.73
2023-03-05T07:49:06.580Z,95084.73
2023-03-05T07:51:34.997Z,95084.42
2023-03-05T07:54:03.250Z,95079.10
2023-03-05T07:56:35.646Z,95082.76
2023-03-05T07:59:06.813Z,95078.30
2023-03-05T08:01:35.758Z,95076.59
2023-03-05T08:04:05.427Z,95075.08
2023-03-05T08:06:33.713Z,95072.86
2023-03-05T08:09:01.760Z,95067.00
2023-03-05T08:11:30.029Z,95065.65
2023-03-05T08:13:59.624Z,95066.52
2023-03-05T08:16:28.183Z,95062.02
2023-03-05T08:18:58.398Z,95057.88
2023-03-05T08:21:29.619Z,95057.73
2023-03-05T08:23:58.362Z,95059.48
2023-03-05T08:26:29.599Z,95054.45
2023-03-05T08:28:58.906Z,95049.06
2023-03-05T08:31:28.201Z,95046.11
2023-03-05T08:33:57.517Z,95046.63
2023-03-05T08:36:26.154Z,95045.23
2023-03-05T08:38:54.232Z,95044.02
2023-03-05T08:41:22.733Z,95042.79
2023-03-05T08:43:51.185Z,95041.89
2023-03-05T08:46:20.163Z,95039.10
2023-03-05T08:48:48.370Z,95041.14
2023-03-05T08:51:19.922Z,95038.65
2023-03-05T08:53:48.180Z,95031.59
2023-03-05T08:56:16.461Z,95030.63
2023-03-05T08:58:46.302Z,95029.47
2023-03-05T09:01:15.243Z,95027.33
2023-03-05T09:03:43.386Z,95026.74
2023-03-05T09:06:12.664Z,95027.71
2023-03-05T09:08:41.202Z,95025.48
2023-03-05T09:11:12.429Z,95022.34
2023-03-05T09:13:40.748Z,95020.92
2023-03-05T09:16:13.326Z,95017.02
2023-03-05T09:18:42.319Z,95016.03
2023-03-05T09:21:15.157Z,95010.86
2023-03-05T09:23:44.317Z,95014.38
2023-03-05T09:26:14.206Z,95016.73
2023-03-05T09:28:42.574Z,95018.27
2023-03-05T09:31:11.681Z,95017.27
2023-03-05T09:33:40.830Z,95016.92
2023-03-05T09:36:24.094Z,95016.53
2023-03-05T09:38:52.369Z,95016.02
2023-03-05T09:41:37.159Z,95014.48
2023-03-05T09:44:23.945Z,95012.05
2023-03-05T09:47:22.582Z,95007.39
2023-03-05T09:50:05.286Z,95005.97
2023-03-05T09:52:43.295Z,95001.52
2023-03-05T09:55:23.714Z,95006.59
2023-03-05T09:57:55.568Z,95002.83
2023-03-05T10:00:41.663Z,95001.81
2023-03-05T10:03:20.196Z,94998.34
2023-03-05T10:06:04.225Z,94994.27
2023-03-05T10:09:03.322Z,94996.52
2023-03-05T10:11:38.972Z,94994.33
2023-03-05T10:14:13.976Z,94990.10
2023-03-05T10:16:45.106Z,94989.71
2023-03-05T10:19:28.682Z,94984.13
2023-03-05T10:22:15.756Z,94988.55
2023-03-05T10:25:14.805Z,94981.46
2023-03-05T10:27:59.476Z,94982.30
2023-03-05T10:30:41.404Z,94982.06
2023-03-05T10:33:23.356Z,94976.02
2023-03-05T10:36:29.412Z,94978.80
2023-03-05T10:39:07.618Z,94973.50
2023-03-05T10:41:38.458Z,94968.02
2023-03-05T10:44:16.628Z,94963.96
2023-03-05T10:46:46.683Z,94960.83
2023-03-05T10:49:23.002Z,94957.14
2023-03-05T10:52:04.142Z,94957.00
2023-03-05T10:54:34.639Z,94955.70
2023-03-05T10:57:26.381Z,94954.52
2023-03-05T11:00:06.746Z,94953.44
2023-03-05T11:02:54.601Z,94953.36
2023-03-05T11:05:48.393Z,94954.23
2023-03-05T11:08:16.655Z,94951.39
2023-03-05T11:10:45.506Z,94947.27
2023-03-05T11:13:26.757Z,94952.73
2023-03-05T11:16:07.480Z,94947.18
2023-03-05T11:18:35.727Z,94945.42
2023-03-05T11:21:12.706Z,94950.70
2023-03-05T11:23:40.878Z,94944.70
2023-03-05T11:26:24.515Z,94941.60
2023-03-05T11:28:52.689Z,94945.24
2023-03-05T11:31:24.579Z,94938.31
2023-03-05T11:34:18.019Z,94935.88
2023-03-05T11:36:55.818Z,94934.14
2023-03-05T11:39:26.384Z,94929.95
2023-03-05T11:42:17.257Z,94925.38
2023-03-05T11:44:51.878Z,94922.73
2023-03-05T11:47:28.953Z,94922.52
2023-03-05T11:50:21.908Z,94920.57
2023-03-05T11:52:51.517Z,94924.06
2023-03-05T11:55:21.680Z,94916.81
2023-03-05T11:58:27.611Z,94912.73
2023-03-05T12:00:56.967Z,94911.55
2023-03-05T12:03:31.065Z,94909.31
2023-03-05T12:06:28.914Z,94910.31
2023-03-05T12:09:03.826Z,94904.33
2023-03-05T12:11:34.135Z,94902.98
2023-03-05T12:14:31.086Z,94901.20
2023-03-05T12:16:59.301Z,94895.23
2023-03-05T12:19:34.622Z,94892.39
2023-03-05T12:22:04.244Z,94891.98
2023-03-05T12:24:34.635Z,94883.64
2023-03-05T12:27:02.650Z,94883.54
2023-03-05T12:29:42.963Z,94880.00
2023-03-05T12:32:23.491Z,94878.79
2023-03-05T12:34:59.784Z,94880.81
2023-03-05T12:37:28.173Z,94878.94
2023-03-05T12:40:09.142Z,94875.66
2023-03-05T12:42:54.012Z,94873.69
2023-03-05T12:45:22.081Z,94875.86
2023-03-05T12:47:56.193Z,94877.25
2023-03-05T12:50:27.345Z,94881.65
2023-03-05T12:52:55.332Z,94881.11
2023-03-05T12:55:28.816Z,94882.69
2023-03-05T12:58:01.667Z,94879.36
2023-03-05T13:00:53.360Z,94884.58
2023-03-05T13:03:26.911Z,94883.44
2023-03-05T13:05:57.874Z,94883.13
2023-03-05T13:08:28.061Z,94882.67
2023-03-05T13:11:02.770Z,94880.26
2023-03-05T13:13:36.097Z,94884.13
2023-03-05T13:16:05.314Z,94893.77
2023-03-05T13:18:34.474Z,94891.25
2023-03-05T13:21:08.811Z,94898.95
2023-03-05T13:23:36.862Z,94901.10
2023-03-05T13:26:11.590Z,94896.95
2023-03-05T13:28:40.135Z,94904.27
2023-03-05T13:31:18.287Z,94895.60
2023-03-05T13:33:56.339Z,94899.77
2023-03-05T13:36:26.643Z,94898.04
2023-03-05T13:38:55.427Z,94898.56
2023-03-05T13:41:27.675Z,94894.05
2023-03-05T13:43:59.441Z,94894.38
2023-03-05T13:46:36.600Z,94889.52
2023-03-05T13:49:18.051Z,94889.67
2023-03-05T13:51:52.144Z,94888.98
2023-03-05T13:54:23.215Z,94887.59
2023-03-05T13:56:56.581Z,94887.94
2023-03-05T13:59:29.125Z,94884.65
2023-03-05T14:02:00.327Z,94879.80
2023-03-05T14:04:37.517Z,94878.06
2023-03-05T14:07:38.187Z,94877.72
2023-03-05T14:10:29.032Z,94872.34
2023-03-05T14:12:59.099Z,94869.73
2023-03-05T14:15:30.142Z,94871.64
2023-03-05T14:18:13.706Z,94867.82
2023-03-05T14:21:17.329Z,94870.25
2023-03-05T14:23:53.037Z,94869.39
2023-03-05T14:26:29.349Z,94865.91
2023-03-05T14:29:11.594Z,94867.99
2023-03-05T14:32:19.560Z,94861.56
2023-03-05T14:34:54.968Z,94858.27
2023-03-05T14:37:36.764Z,94855.48
2023-03-05T14:40:20.644Z,94856.02
2023-03-05T14:42:56.573Z,94855.83
2023-03-05T14:45:37.736Z,94858.98
2023-03-05T14:48:08.141Z,94859.67
2023-03-05T14:50:42.804Z,94863.48
2023-03-05T14:53:16.947Z,94863.32
2023-03-05T14:55:48.968Z,94860.36
2023-03-05T14:58:21.882Z,94862.10
2023-03-05T15:00:51.225Z,94862.09
2023-03-05T15:03:21.151Z,94858.45
2023-03-05T15:05:52.023Z,94854.45
2023-03-05T15:08:29.386Z,94857.73
2023-03-05T15:10:58.465Z,94852.88
2023-03-05T15:13:26.953Z,94853.73
2023-03-05T15:15:55.698Z,94855.98
2023-03-05T15:18:24.826Z,94857.90
2023-03-05T15:20:53.257Z,94863.11
2023-03-05T15:23:21.513Z,94862.23
2023-03-05T15:25:50.613Z,94863.26
2023-03-05T15:28:19.052Z,94854.58
2023-03-05T15:30:47.934Z,94861.16
2023-03-05T15:33:17.870Z,94860.46
2023-03-05T15:35:46.299Z,94861.86
2023-03-05T15:38:16.295Z,94863.58
2023-03-05T15:40:45.144Z,94866.70
2023-03-05T15:43:14.362Z,94866.87
2023-03-05T15:45:42.719Z,94862.16
2023-03-05T15:48:11.007Z,94862.52
2023-03-05T15:50:43.987Z,94864.60
2023-03-05T15:53:15.800Z,94863.40
2023-03-05T15:55:46.016Z,94862.89
2023-03-05T15:58:17.143Z,94869.30
2023-03-05T16:00:47.631Z,94866.84
2023-03-05T16:03:16.211Z,94861.47
2023-03-05T16:05:44.502Z,94865.09
2023-03-05T16:08:13.175Z,94868.21
2023-03-05T16:10:41.557Z,94865.95
2023-03-05T16:13:16.621Z,94869.25
2023-03-05T16:15:45.216Z,94869.59
2023-03-05T16:18:16.515Z,94865.94
2023-03-05T16:20:45.543Z,94867.66
2023-03-05T16:23:14.712Z,94865.57
2023-03-05T16:25:42.682Z,94864.53
2023-03-05T16:28:11.062Z,94865.72
2023-03-05T16:30:40.212Z,94868.33
2023-03-05T16:33:08.335Z,94871.61
2023-03-05T16:35:36.675Z,94876.31
2023-03-05T16:38:04.810Z,94870.06
2023-03-05T16:41:05.628Z,94875.09
2023-03-05T16:43:25.243Z,94874.23
2023-03-05T16:45:53.468Z,94874.54
2023-03-05T16:48:21.853Z,94879.04
2023-03-05T16:50:49.857Z,94880.24
2023-03-05T16:53:18.192Z,94883.19
2023-03-05T16:55:46.469Z,94883.69
2023-03-05T16:58:14.641Z,94882.31
2023-03-05T17:00:42.922Z,94884.58
2023-03-05T17:03:11.215Z,94889.25
2023-03-05T17:05:39.171Z,94887.35
2023-03-05T17:08:07.650Z,94889.77
2023-03-05T17:10:35.923Z,94885.79
2023-03-05T17:13:04.633Z,94887.52
2023-03-05T17:15:33.595Z,94889.08
2023-03-05T17:18:02.200Z,94895.83
2023-03-05T17:20:30.404Z,94896.86
2023-03-05T17:23:02.970Z,94893.41
2023-03-05T17:25:31.116Z,94896.69
2023-03-05T17:27:59.466Z,94895.48
2023-03-05T17:30:28.386Z,94897.90
2023-03-05T17:32:56.558Z,94899.10
2023-03-05T17:35:25.079Z,94901.00
2023-03-05T17:37:55.379Z,94901.52
2023-03-05T17:40:24.670Z,94900.47
2023-03-05T17:42:52.928Z,94902.02
2023-03-05T17:45:21.270Z,94898.89
2023-03-05T17:47:49.370Z,94896.13
2023-03-05T17:50:20.328Z,94896.98
2023-03-05T17:52:48.585Z,94898.02
2023-03-05T17:55:18.779Z,94902.17
2023-03-05T17:57:48.110Z,94902.88
2023-03-05T18:00:26.272Z,94899.95
2023-03-05T18:02:54.804Z,94898.21
2023-03-05T18:05:24.175Z,94897.86
2023-03-05T18:07:52.989Z,94904.61
2023-03-05T18:10:23.600Z,94899.74
2023-03-05T18:12:52.406Z,94900.94
2023-03-05T18:15:22.801Z,94903.52
2023-03-05T18:17:51.730Z,94902.84
2023-03-05T18:20:30.191Z,94906.30
2023-03-05T18:23:01.005Z,94904.73
2023-03-05T18:25:32.588Z,94906.27
2023-03-05T18:28:06.584Z,94905.92
2023-03-05T18:30:35.655Z,94906.42
2023-03-05T18:33:05.029Z,94901.92
2023-03-05T18:35:34.041Z,94899.67
2023-03-05T18:38:02.500Z,94902.29
2023-03-05T18:40:35.930Z,94898.64
2023-03-05T18:43:04.480Z,94901.23
2023-03-05T18:45:34.398Z,94899.67
2023-03-05T18:48:02.519Z,94894.66
2023-03-05T18:50:30.778Z,94895.69
2023-03-05T18:52:59.321Z,94899.34
2023-03-05T18:55:32.706Z,94904.70
2023-03-05T18:58:00.891Z,94904.36
2023-03-05T19:00:31.534Z,94901.75
2023-03-05T19:02:59.795Z,94904.34
2023-03-05T19:05:28.185Z,94897.05
2023-03-05T19:07:56.863Z,94905.02
2023-03-05T19:10:25.785Z,94900.34
2023-03-05T19:13:08.185Z,94901.73
2023-03-05T19:15:42.530Z,94901.21
2023-03-05T19:18:10.653Z,94898.44
2023-03-05T19:20:39.848Z,94902.59
2023-03-05T19:23:10.934Z,94901.38
2023-03-05T19:25:41.235Z,94901.90
2023-03-05T19:28:09.705Z,94905.89
2023-03-05T19:30:40.116Z,94905.71
2023-03-05T19:33:08.194Z,94911.61
2023-03-05T19:35:36.642Z,94910.39
2023-03-05T19:38:04.596Z,94907.44
2023-03-05T19:40:32.926Z,94913.83
2023-03-05T19:43:01.086Z,94910.01
2023-03-05T19:45:33.770Z,94911.05
2023-03-05T19:48:01.941Z,94911.55
2023-03-05T19:50:30.322Z,94912.44
2023-03-05T19:52:59.003Z,94908.98
2023-03-05T19:55:27.061Z,94907.60
2023-03-05T19:57:57.413Z,94909.35
2023-03-05T20:00:28.646Z,94905.55
2023-03-05T20:02:57.643Z,94912.16
2023-03-05T20:05:26.732Z,94909.56
2023-03-05T20:07:54.748Z,94907.83
2023-03-05T20:10:23.076Z,94907.32
2023-03-05T20:12:51.762Z,94901.26
2023-03-05T20:15:29.268Z,94901.45
2023-03-05T20:17:58.044Z,94896.91
2023-03-05T20:20:26.214Z,94899.52
2023-03-05T20:22:54.238Z,94894.98
2023-03-05T20:25:24.894Z,94895.84
2023-03-05T20:27:53.402Z,94891.14
2023-03-05T20:30:21.678Z,94884.19
2023-03-05T20:32:50.051Z,94882.95
2023-03-05T20:35:19.018Z,94877.06
2023-03-05T20:38:25.425Z,94877.22
2023-03-05T20:41:02.546Z,94875.66
2023-03-05T20:43:34.072Z,94871.14
2023-03-05T20:46:02.683Z,94871.83
2023-03-05T20:48:34.638Z,94861.94
2023-03-05T20:51:18.860Z,94859.71
2023-03-05T20:53:46.908Z,94858.15
2023-03-05T20:56:15.196Z,94856.05
2023-03-05T20:58:43.779Z,94856.75
2023-03-05T21:01:12.547Z,94854.16
2023-03-05T21:03:41.249Z,94855.03
2023-03-05T21:06:09.616Z,94858.33
2023-03-05T21:08:37.804Z,94854.85
2023-03-05T21:11:09.022Z,94851.55
2023-03-05T21:13:38.082Z,94852.25
2023-03-05T21:16:08.612Z,94839.40
2023-03-05T21:18:37.109Z,94835.95
2023-03-05T21:21:05.949Z,94838.88
2023-03-05T21:23:34.643Z,94836.79
2023-03-05T21:26:04.224Z,94833.13
2023-03-05T21:28:33.196Z,94831.57
2023-03-05T21:31:08.423Z,94831.91
2023-03-05T21:33:37.201Z,94830.86
2023-03-05T21:36:05.803Z,94828.25
2023-03-05T21:38:34.933Z,94827.55
2023-03-05T21:41:04.192Z,94824.07
2023-03-05T21:43:33.096Z,94820.07
2023-03-05T21:46:03.352Z,94815.36
2023-03-05T21:48:31.625Z,94818.81
2023-03-05T21:50:59.776Z,94809.77
2023-03-05T21:53:27.759Z,94818.05
2023-03-05T21:56:31.056Z,94816.61
2023-03-05T21:59:00.869Z,94821.09
2023-03-05T22:01:28.986Z,94821.79
2023-03-05T22:03:57.228Z,94821.27
2023-03-05T22:06:25.387Z,94821.62
2023-03-05T22:08:53.344Z,94821.80
2023-03-05T22:11:22.669Z,94821.64
2023-03-05T22:13:50.821Z,94818.85
2023-03-05T22:16:24.743Z,94823.48
2023-03-05T22:18:53.416Z,94817.72
2023-03-05T22:21:23.796Z,94816.36
2023-03-05T22:23:53.518Z,94814.08
2023-03-05T22:26:21.723Z,94811.44
2023-03-05T22:28:50.665Z,94809.83
2023-03-05T22:31:24.015Z,94810.46
2023-03-05T22:33:53.117Z,94801.90
2023-03-05T22:36:21.221Z,94804.02
2023-03-05T22:38:49.511Z,94811.19
2023-03-05T22:41:19.949Z,94812.96
2023-03-05T22:43:49.250Z,94808.95
2023-03-05T22:46:23.371Z,94812.67
2023-03-05T22:48:52.691Z,94806.39
2023-03-05T22:51:21.312Z,94809.49
2023-03-05T22:53:49.557Z,94805.17
2023-03-05T22:56:20.188Z,94807.35
2023-03-05T22:58:48.579Z,94803.71
2023-03-05T23:01:22.782Z,94807.30
2023-03-05T23:04:29.102Z,94804.63
2023-03-05T23:07:04.796Z,94811.64
2023-03-05T23:09:32.911Z,94803.66
2023-03-05T23:12:01.174Z,94808.48
2023-03-05T23:14:29.433Z,94808.05
2023-03-05T23:16:57.533Z,94809.02
2023-03-05T23:19:25.573Z,94805.37
2023-03-05T23:21:53.747Z,94806.23
2023-03-05T23:24:21.916Z,94809.27
2023-03-05T23:26:49.885Z,94801.59
2023-03-05T23:30:06.192Z,94801.54
2023-03-05T23:32:40.422Z,94803.90
2023-03-05T23:35:11.481Z,94802.17
2023-03-05T23:37:40.545Z,94809.30
2023-03-05T23:40:13.625Z,94805.33
2023-03-05T23:42:42.701Z,94806.06
2023-03-05T23:45:13.477Z,94807.84
2023-03-05T23:47:42.653Z,94810.06
2023-03-05T23:50:14.771Z,94811.63
2023-03-05T23:52:44.210Z,94811.30
2023-03-05T23:55:25.201Z,94812.85
2023-03-05T23:57:54.655Z,94810.98
